Buoy 41936

sailwx.info

Track history (hours):
 
Tides and Currents Weather Stations Pressure Air Temp Water Temp Dewpoint Dewpoint Depression Visibility Wind Speed Wind Dir Waves Ship Positions

Drifting buoy 41936

Last reported at 2016-May-27 06:00 UTC. Time now 2016-May-27 08:23 UTC.
Position N 32°35' W 061°58'.

Barometer 1021.6 mb

Date/timePositionNaut miles runAvg speedWind from/ knotsBaromVisibWave heightAir tempDewpointWater temp
2016-May-27 06:00N 32°35' W 061°58'1 0.2 1021.6
2016-May-27 02:00N 32°35' W 061°58'3 1.1 1022.6
2016-May-26 23:00N 32°38' W 061°56'2 2.0 1022.1
2016-May-26 22:00N 32°40' W 061°55'0 0.3 1022.1
2016-May-26 21:00N 32°40' W 061°56'4 1.2 1022.2
2016-May-26 18:00N 32°42' W 061°59'0 0.0 1023.0
2016-May-26 17:00N 32°42' W 061°59'1 0.7 1022.2
2016-May-26 15:00N 32°44' W 061°60'1 0.6 1023.4
2016-May-26 14:00N 32°43' W 061°60'1 0.9 1023.5
2016-May-26 13:00N 32°42' W 061°59'2 0.8 1023.3
2016-May-26 11:00N 32°41' W 061°60'0 0.4 1022.8
2016-May-26 10:00N 32°41' W 061°59'1 0.9 1022.3
2016-May-26 09:00N 32°40' W 061°58'1 1.2 1022.1
2016-May-26 08:00N 32°40' W 061°57'4 0.6 1022.3
2016-May-26 02:00N 32°43' W 061°54'2 2.0 1023.2
2016-May-26 01:00N 32°44' W 061°53'5 2.3 1023.1
2016-May-25 23:00N 32°48' W 061°56'0 0.0 1023.1
2016-May-25 22:00N 32°48' W 061°56'0 0.4 1023.1
2016-May-25 21:00N 32°48' W 061°56'4 3.6 1023.0
2016-May-25 20:00N 32°49' W 062°00'0 0.0 1023.0
2016-May-25 19:00N 32°49' W 062°00'1 0.8 1022.7
2016-May-25 18:00N 32°49' W 062°01'1 0.6 1022.8
2016-May-25 16:00N 32°48' W 062°02'5 2.5 1023.4
2016-May-25 14:00N 32°44' W 062°05'5 1.7 1023.5
2016-May-25 11:00N 32°39' W 062°05'1 1.3 1023.0
2016-May-25 10:00N 32°38' W 062°04'1 0.7 1022.8
2016-May-25 09:00N 32°37' W 062°04'1 1.1 1022.5
2016-May-25 08:00N 32°37' W 062°03'3 2.9 1022.4
2016-May-25 07:00N 32°35' W 062°00'0 0.1 1022.2
2016-May-25 02:00N 32°35' W 061°60'0 0.5 1023.3
2016-May-25 01:00N 32°34' W 061°60'1 0.4 1023.1
2016-May-24 23:00N 32°34' W 062°01'3 1.1 1022.3
2016-May-24 20:00N 32°31' W 062°01'2 1.2 1022.5
2016-May-24 18:00N 32°28' W 062°02'3 0.9 1022.5
2016-May-24 15:00N 32°26' W 062°02'3 1.6 1022.9
2016-May-24 13:00N 32°23' W 062°01'4 4.1 1022.5
2016-May-24 12:00N 32°19' W 061°59'0 0.0 1022.0
2016-May-24 11:00N 32°19' W 061°59'2 2.3 1021.7
2016-May-24 10:00N 32°17' W 061°57'0 0.5 1020.9
2016-May-24 09:00N 32°17' W 061°57'4 3.7 1020.6
2016-May-24 08:00N 32°14' W 061°54'3 3.3 1020.2
2016-May-24 07:00N 32°12' W 061°51'0 0.0 1020.2
2016-May-24 06:00N 32°12' W 061°51'6 1.4 1020.0
2016-May-24 02:00N 32°08' W 061°46'1 1.2 1020.8
2016-May-24 01:00N 32°07' W 061°45'3 2.7 1020.5
2016-May-24 00:00N 32°06' W 061°42'0 0.0 1020.1
2016-May-23 23:00N 32°06' W 061°42'1 1.2 1019.9
2016-May-23 22:00N 32°06' W 061°41'1 1.5 1019.5
2016-May-23 21:00N 32°05' W 061°39'0 0.0 1019.2
2016-May-23 20:00N 32°05' W 061°39'0 0.0 1018.8
2016-May-23 19:00N 32°05' W 061°39'1 0.7 1019.2
2016-May-23 18:00N 32°05' W 061°39'0 0.2 1019.3
2016-May-23 16:00N 32°05' W 061°39'1 1.4 1019.4
2016-May-23 15:00N 32°04' W 061°39'0 0.5 1019.6
2016-May-23 14:00N 32°03' W 061°38'2 1.0 1019.2
2016-May-23 12:00N 32°01' W 061°39'0 0.0 1018.8
2016-May-23 11:00N 32°01' W 061°39'2 1.8 1018.6
2016-May-23 10:00N 31°60' W 061°38'1 0.8 1018.2
2016-May-23 09:00N 31°59' W 061°37'4 1.9 1017.4
2016-May-23 07:00N 31°56' W 061°36'0 0.0 1017.0
2016-May-23 05:00N 31°56' W 061°36'3 1.1 1017.6
2016-May-23 02:00N 31°54' W 061°32'0 0.4 1018.4
2016-May-23 01:00N 31°55' W 061°32'0 0.4 1018.1
2016-May-23 00:00N 31°55' W 061°32'0 0.3 1017.5
2016-May-22 23:00N 31°55' W 061°32'0 0.0 1017.3
2016-May-22 22:00N 31°55' W 061°32'1 0.4 1016.7
2016-May-22 20:00N 31°55' W 061°33'1 1.5 1016.6
2016-May-22 19:00N 31°54' W 061°34'3 0.6 1017.1
2016-May-22 14:00N 31°51' W 061°36'3 1.0 1017.2
2016-May-22 11:00N 31°48' W 061°36'3 1.7 1016.8
2016-May-22 09:00N 31°46' W 061°33'2 0.9 1016.7
2016-May-22 07:00N 31°45' W 061°31'0 0.1 1017.1
2016-May-22 06:00N 31°45' W 061°31'0 0.0 1017.9
2016-May-22 05:00N 31°45' W 061°31'3 1.0 1018.7
2016-May-22 02:00N 31°44' W 061°28'0 0.5 1020.4
2016-May-22 01:00N 31°44' W 061°28'1 1.0 1020.2
2016-May-22 00:00N 31°44' W 061°26'1 1.0 1019.9
2016-May-21 23:00N 31°44' W 061°27'1 1.1 1019.8
2016-May-21 22:00N 31°44' W 061°26'2 1.5 1019.6
2016-May-21 21:00N 31°43' W 061°25'0 0.2 1019.8
2016-May-21 20:00N 31°43' W 061°24'2 1.8 1019.9
2016-May-21 19:00N 31°43' W 061°22'2 0.4 1020.0
2016-May-21 15:00N 31°44' W 061°21'1 0.9 1022.0
2016-May-21 14:00N 31°44' W 061°20'1 1.1 1022.0
2016-May-21 13:00N 31°44' W 061°19'1 0.6 1021.7
2016-May-21 12:00N 31°44' W 061°18'0 0.1 1021.2
2016-May-21 10:00N 31°44' W 061°18'2 2.0 1020.5
2016-May-21 09:00N 31°44' W 061°15'0 0.1 1019.8
2016-May-21 08:00N 31°44' W 061°16'2 1.6 1019.3
2016-May-21 07:00N 31°45' W 061°14'3 3.3 1019.1
2016-May-21 06:00N 31°48' W 061°11'0 0.0 1018.8
2016-May-21 02:00N 31°48' W 061°11'2 1.9 1019.6
2016-May-21 01:00N 31°49' W 061°10'0 0.2 1019.0
2016-May-21 00:00N 31°49' W 061°10'0 0.2 1018.5
2016-May-20 22:00N 31°49' W 061°10'0 0.0 1018.3
2016-May-20 21:00N 31°49' W 061°10'0 0.5 1017.9
2016-May-20 20:00N 31°49' W 061°11'0 0.0 1018.0
2016-May-20 19:00N 31°49' W 061°11'2 0.4 1018.2
2016-May-20 14:00N 31°48' W 061°13'1 0.7 1019.0
2016-May-20 13:00N 31°48' W 061°14'1 0.7 1018.7
2016-May-20 11:00N 31°46' W 061°14'0 0.1 1018.4
2016-May-20 10:00N 31°46' W 061°14'1 0.6 1018.2
2016-May-20 08:00N 31°45' W 061°15'0 0.0 1017.6
2016-May-20 07:00N 31°45' W 061°15'3 3.1 1017.7
2016-May-20 06:00N 31°42' W 061°16'3 3.2 1017.9
2016-May-20 05:00N 31°45' W 061°15'3 1.0 1018.5
2016-May-20 02:00N 31°42' W 061°16'1 0.7 1019.8
2016-May-20 01:00N 31°42' W 061°15'0 0.3 1019.5
2016-May-20 00:00N 31°41' W 061°16'1 0.7 1019.1
2016-May-19 23:00N 31°41' W 061°15'1 1.0 1018.8
2016-May-19 22:00N 31°40' W 061°15'0 0.2 1018.9
2016-May-19 21:00N 31°40' W 061°15'1 0.5 1018.7
2016-May-19 19:00N 31°39' W 061°15'1 1.5 1019.1
2016-May-19 18:00N 31°39' W 061°17'0 0.0 1019.9
2016-May-19 17:00N 31°39' W 061°17'1 0.5 1020.3
2016-May-19 15:00N 31°39' W 061°16'0 0.0 1020.7
2016-May-19 14:00N 31°39' W 061°16'2 1.0 1020.6
2016-May-19 12:00N 31°38' W 061°19'2 0.8 1020.2
2016-May-19 09:00N 31°37' W 061°21'2 2.1 1019.5
2016-May-19 08:00N 31°35' W 061°22'5 2.6 1019.6
2016-May-19 06:00N 31°30' W 061°23'0 0.0 1020.3
2016-May-19 02:00N 31°30' W 061°23'2 1.6 1023.1
2016-May-19 01:00N 31°28' W 061°23'1 0.6 1023.2
2016-May-18 23:00N 31°27' W 061°22'1 0.6 1022.4
2016-May-18 22:00N 31°27' W 061°22'1 1.4 1022.0
2016-May-18 21:00N 31°26' W 061°20'1 0.9 1022.1
2016-May-18 20:00N 31°26' W 061°21'5 2.3 1022.3
2016-May-18 18:00N 31°23' W 061°17'2 2.1 1023.1
2016-May-18 17:00N 31°24' W 061°19'2 1.0 1024.1
2016-May-18 15:00N 31°23' W 061°17'2 0.4 1024.7
2016-May-18 11:00N 31°22' W 061°18'0 0.5 1024.0
2016-May-18 10:00N 31°21' W 061°18'3 1.3 1024.0
2016-May-18 08:00N 31°19' W 061°19'5 2.6 1023.1
2016-May-18 06:00N 31°14' W 061°16'0 0.0 1023.8
2016-May-18 02:00N 31°14' W 061°16'2 1.9 1025.2
2016-May-18 01:00N 31°13' W 061°14'2 2.1 1025.1
2016-May-18 00:00N 31°12' W 061°12'0 0.0 1025.1
2016-May-17 23:00N 31°12' W 061°12'1 1.1 1024.9
2016-May-17 22:00N 31°12' W 061°11'4 2.2 1024.7
2016-May-17 20:00N 31°12' W 061°06'0 0.0 1024.5
2016-May-17 19:00N 31°12' W 061°06'1 1.0 1025.1
2016-May-17 18:00N 31°13' W 061°06'0 0.0 1025.4
2016-May-17 17:00N 31°13' W 061°06'1 0.2 1025.9
2016-May-17 14:00N 31°13' W 061°06'1 1.0 1026.4
2016-May-17 13:00N 31°13' W 061°07'0 0.0 1026.2
2016-May-17 12:00N 31°13' W 061°07'1 0.7 1025.7
2016-May-17 10:00N 31°11' W 061°08'7 3.6 1024.4
2016-May-17 08:00N 31°04' W 061°08'0 0.0 1023.5
2016-May-17 07:00N 31°04' W 061°08'   1023.4
Track history (hours):
 
Tides and Currents Weather Stations Pressure Air Temp Water Temp Dewpoint Dewpoint Depression Visibility Wind Speed Wind Dir Waves Ship Positions

Drifting buoy 41936

Last reported at 2016-May-27 06:00 UTC. Time now 2016-May-27 08:23 UTC.
Position N 32°35' W 061°58'.

Barometer 1021.6 mb

Date/timePositionNaut miles runAvg speedWind from/ knotsBaromVisibWave heightAir tempDewpointWater temp
2016-May-27 06:00N 32°35' W 061°58'1 0.2 1021.6
2016-May-27 02:00N 32°35' W 061°58'3 1.1 1022.6
2016-May-26 23:00N 32°38' W 061°56'2 2.0 1022.1
2016-May-26 22:00N 32°40' W 061°55'0 0.3 1022.1
2016-May-26 21:00N 32°40' W 061°56'4 1.2 1022.2
2016-May-26 18:00N 32°42' W 061°59'0 0.0 1023.0
2016-May-26 17:00N 32°42' W 061°59'1 0.7 1022.2
2016-May-26 15:00N 32°44' W 061°60'1 0.6 1023.4
2016-May-26 14:00N 32°43' W 061°60'1 0.9 1023.5
2016-May-26 13:00N 32°42' W 061°59'2 0.8 1023.3
2016-May-26 11:00N 32°41' W 061°60'0 0.4 1022.8
2016-May-26 10:00N 32°41' W 061°59'1 0.9 1022.3
2016-May-26 09:00N 32°40' W 061°58'1 1.2 1022.1
2016-May-26 08:00N 32°40' W 061°57'4 0.6 1022.3
2016-May-26 02:00N 32°43' W 061°54'2 2.0 1023.2
2016-May-26 01:00N 32°44' W 061°53'5 2.3 1023.1
2016-May-25 23:00N 32°48' W 061°56'0 0.0 1023.1
2016-May-25 22:00N 32°48' W 061°56'0 0.4 1023.1
2016-May-25 21:00N 32°48' W 061°56'4 3.6 1023.0
2016-May-25 20:00N 32°49' W 062°00'0 0.0 1023.0
2016-May-25 19:00N 32°49' W 062°00'1 0.8 1022.7
2016-May-25 18:00N 32°49' W 062°01'1 0.6 1022.8
2016-May-25 16:00N 32°48' W 062°02'5 2.5 1023.4
2016-May-25 14:00N 32°44' W 062°05'5 1.7 1023.5
2016-May-25 11:00N 32°39' W 062°05'1 1.3 1023.0
2016-May-25 10:00N 32°38' W 062°04'1 0.7 1022.8
2016-May-25 09:00N 32°37' W 062°04'1 1.1 1022.5
2016-May-25 08:00N 32°37' W 062°03'3 2.9 1022.4
2016-May-25 07:00N 32°35' W 062°00'0 0.1 1022.2
2016-May-25 02:00N 32°35' W 061°60'0 0.5 1023.3
2016-May-25 01:00N 32°34' W 061°60'1 0.4 1023.1
2016-May-24 23:00N 32°34' W 062°01'3 1.1 1022.3
2016-May-24 20:00N 32°31' W 062°01'2 1.2 1022.5
2016-May-24 18:00N 32°28' W 062°02'3 0.9 1022.5
2016-May-24 15:00N 32°26' W 062°02'3 1.6 1022.9
2016-May-24 13:00N 32°23' W 062°01'4 4.1 1022.5
2016-May-24 12:00N 32°19' W 061°59'0 0.0 1022.0
2016-May-24 11:00N 32°19' W 061°59'2 2.3 1021.7
2016-May-24 10:00N 32°17' W 061°57'0 0.5 1020.9
2016-May-24 09:00N 32°17' W 061°57'4 3.7 1020.6
2016-May-24 08:00N 32°14' W 061°54'3 3.3 1020.2
2016-May-24 07:00N 32°12' W 061°51'0 0.0 1020.2
2016-May-24 06:00N 32°12' W 061°51'6 1.4 1020.0
2016-May-24 02:00N 32°08' W 061°46'1 1.2 1020.8
2016-May-24 01:00N 32°07' W 061°45'3 2.7 1020.5
2016-May-24 00:00N 32°06' W 061°42'0 0.0 1020.1
2016-May-23 23:00N 32°06' W 061°42'1 1.2 1019.9
2016-May-23 22:00N 32°06' W 061°41'1 1.5 1019.5
2016-May-23 21:00N 32°05' W 061°39'0 0.0 1019.2
2016-May-23 20:00N 32°05' W 061°39'0 0.0 1018.8
2016-May-23 19:00N 32°05' W 061°39'1 0.7 1019.2
2016-May-23 18:00N 32°05' W 061°39'0 0.2 1019.3
2016-May-23 16:00N 32°05' W 061°39'1 1.4 1019.4
2016-May-23 15:00N 32°04' W 061°39'0 0.5 1019.6
2016-May-23 14:00N 32°03' W 061°38'2 1.0 1019.2
2016-May-23 12:00N 32°01' W 061°39'0 0.0 1018.8
2016-May-23 11:00N 32°01' W 061°39'2 1.8 1018.6
2016-May-23 10:00N 31°60' W 061°38'1 0.8 1018.2
2016-May-23 09:00N 31°59' W 061°37'4 1.9 1017.4
2016-May-23 07:00N 31°56' W 061°36'0 0.0 1017.0
2016-May-23 05:00N 31°56' W 061°36'3 1.1 1017.6
2016-May-23 02:00N 31°54' W 061°32'0 0.4 1018.4
2016-May-23 01:00N 31°55' W 061°32'0 0.4 1018.1
2016-May-23 00:00N 31°55' W 061°32'0 0.3 1017.5
2016-May-22 23:00N 31°55' W 061°32'0 0.0 1017.3
2016-May-22 22:00N 31°55' W 061°32'1 0.4 1016.7
2016-May-22 20:00N 31°55' W 061°33'1 1.5 1016.6
2016-May-22 19:00N 31°54' W 061°34'3 0.6 1017.1
2016-May-22 14:00N 31°51' W 061°36'3 1.0 1017.2
2016-May-22 11:00N 31°48' W 061°36'3 1.7 1016.8
2016-May-22 09:00N 31°46' W 061°33'2 0.9 1016.7
2016-May-22 07:00N 31°45' W 061°31'0 0.1 1017.1
2016-May-22 06:00N 31°45' W 061°31'0 0.0 1017.9
2016-May-22 05:00N 31°45' W 061°31'3 1.0 1018.7
2016-May-22 02:00N 31°44' W 061°28'0 0.5 1020.4
2016-May-22 01:00N 31°44' W 061°28'1 1.0 1020.2
2016-May-22 00:00N 31°44' W 061°26'1 1.0 1019.9
2016-May-21 23:00N 31°44' W 061°27'1 1.1 1019.8
2016-May-21 22:00N 31°44' W 061°26'2 1.5 1019.6
2016-May-21 21:00N 31°43' W 061°25'0 0.2 1019.8
2016-May-21 20:00N 31°43' W 061°24'2 1.8 1019.9
2016-May-21 19:00N 31°43' W 061°22'2 0.4 1020.0
2016-May-21 15:00N 31°44' W 061°21'1 0.9 1022.0
2016-May-21 14:00N 31°44' W 061°20'1 1.1 1022.0
2016-May-21 13:00N 31°44' W 061°19'1 0.6 1021.7
2016-May-21 12:00N 31°44' W 061°18'0 0.1 1021.2
2016-May-21 10:00N 31°44' W 061°18'2 2.0 1020.5
2016-May-21 09:00N 31°44' W 061°15'0 0.1 1019.8
2016-May-21 08:00N 31°44' W 061°16'2 1.6 1019.3
2016-May-21 07:00N 31°45' W 061°14'3 3.3 1019.1
2016-May-21 06:00N 31°48' W 061°11'0 0.0 1018.8
2016-May-21 02:00N 31°48' W 061°11'2 1.9 1019.6
2016-May-21 01:00N 31°49' W 061°10'0 0.2 1019.0
2016-May-21 00:00N 31°49' W 061°10'0 0.2 1018.5
2016-May-20 22:00N 31°49' W 061°10'0 0.0 1018.3
2016-May-20 21:00N 31°49' W 061°10'0 0.5 1017.9
2016-May-20 20:00N 31°49' W 061°11'0 0.0 1018.0
2016-May-20 19:00N 31°49' W 061°11'2 0.4 1018.2
2016-May-20 14:00N 31°48' W 061°13'1 0.7 1019.0
2016-May-20 13:00N 31°48' W 061°14'1 0.7 1018.7
2016-May-20 11:00N 31°46' W 061°14'0 0.1 1018.4
2016-May-20 10:00N 31°46' W 061°14'1 0.6 1018.2
2016-May-20 08:00N 31°45' W 061°15'0 0.0 1017.6
2016-May-20 07:00N 31°45' W 061°15'3 3.1 1017.7
2016-May-20 06:00N 31°42' W 061°16'3 3.2 1017.9
2016-May-20 05:00N 31°45' W 061°15'3 1.0 1018.5
2016-May-20 02:00N 31°42' W 061°16'1 0.7 1019.8
2016-May-20 01:00N 31°42' W 061°15'0 0.3 1019.5
2016-May-20 00:00N 31°41' W 061°16'1 0.7 1019.1
2016-May-19 23:00N 31°41' W 061°15'1 1.0 1018.8
2016-May-19 22:00N 31°40' W 061°15'0 0.2 1018.9
2016-May-19 21:00N 31°40' W 061°15'1 0.5 1018.7
2016-May-19 19:00N 31°39' W 061°15'1 1.5 1019.1
2016-May-19 18:00N 31°39' W 061°17'0 0.0 1019.9
2016-May-19 17:00N 31°39' W 061°17'1 0.5 1020.3
2016-May-19 15:00N 31°39' W 061°16'0 0.0 1020.7
2016-May-19 14:00N 31°39' W 061°16'2 1.0 1020.6
2016-May-19 12:00N 31°38' W 061°19'2 0.8 1020.2
2016-May-19 09:00N 31°37' W 061°21'2 2.1 1019.5
2016-May-19 08:00N 31°35' W 061°22'5 2.6 1019.6
2016-May-19 06:00N 31°30' W 061°23'0 0.0 1020.3
2016-May-19 02:00N 31°30' W 061°23'2 1.6 1023.1
2016-May-19 01:00N 31°28' W 061°23'1 0.6 1023.2
2016-May-18 23:00N 31°27' W 061°22'1 0.6 1022.4
2016-May-18 22:00N 31°27' W 061°22'1 1.4 1022.0
2016-May-18 21:00N 31°26' W 061°20'1 0.9 1022.1
2016-May-18 20:00N 31°26' W 061°21'5 2.3 1022.3
2016-May-18 18:00N 31°23' W 061°17'2 2.1 1023.1
2016-May-18 17:00N 31°24' W 061°19'2 1.0 1024.1
2016-May-18 15:00N 31°23' W 061°17'2 0.4 1024.7
2016-May-18 11:00N 31°22' W 061°18'0 0.5 1024.0
2016-May-18 10:00N 31°21' W 061°18'3 1.3 1024.0
2016-May-18 08:00N 31°19' W 061°19'5 2.6 1023.1
2016-May-18 06:00N 31°14' W 061°16'0 0.0 1023.8
2016-May-18 02:00N 31°14' W 061°16'2 1.9 1025.2
2016-May-18 01:00N 31°13' W 061°14'2 2.1 1025.1
2016-May-18 00:00N 31°12' W 061°12'0 0.0 1025.1
2016-May-17 23:00N 31°12' W 061°12'1 1.1 1024.9
2016-May-17 22:00N 31°12' W 061°11'4 2.2 1024.7
2016-May-17 20:00N 31°12' W 061°06'0 0.0 1024.5
2016-May-17 19:00N 31°12' W 061°06'1 1.0 1025.1
2016-May-17 18:00N 31°13' W 061°06'0 0.0 1025.4
2016-May-17 17:00N 31°13' W 061°06'1 0.2 1025.9
2016-May-17 14:00N 31°13' W 061°06'1 1.0 1026.4
2016-May-17 13:00N 31°13' W 061°07'0 0.0 1026.2
2016-May-17 12:00N 31°13' W 061°07'1 0.7 1025.7
2016-May-17 10:00N 31°11' W 061°08'7 3.6 1024.4
2016-May-17 08:00N 31°04' W 061°08'0 0.0 1023.5
2016-May-17 07:00N 31°04' W 061°08'   1023.4

Dump ship's entire track history